Flight Track Log - Related Links

Times and Time Zones

All times are in EDT time to prevent confusion due to time zone crossing. See the SWA1044 flight status page for this flight to view local times or setup timezone preferences in your user account.

Time Position Orientation Groundspeed Altitude Reporting Facility
EDT Latitude Longitude Course Direction KTS MPH feet Rate Location/Type
Sat 01:09:15 PM 33.5486 -86.7831 238° Southwest 164 189 1,500  Level Atlanta Center
Sat 01:10:09 PM 33.5225 -86.8322 238° Southwest 204 235 3,700 2,336 Climbing Atlanta Center
Sat 01:11:08 PM 33.4661 -86.8328 180° South 257 296 5,900 2,622 Climbing Atlanta Center
Sat 01:12:08 PM 33.3917 -86.8006 160° South 274 315 8,900 2,500 Climbing Atlanta Center
Sat 01:13:08 PM 33.3069 -86.7681 162° South 300 345 10,900 2,100 Climbing Atlanta Center
Sat 01:14:08 PM 33.2222 -86.7331 161° South 330 380 13,100 2,600 Climbing Atlanta Center
Sat 01:15:08 PM 33.1228 -86.6878 159° South 361 415 16,100 2,550 Climbing Atlanta Center
Sat 01:16:08 PM 33.0194 -86.6500 163° South 378 435 18,200 1,700 Climbing Atlanta Center
Sat 01:17:08 PM 32.9117 -86.6047 161° South 397 457 19,500 1,450 Climbing Atlanta Center
Sat 01:18:08 PM 32.7939 -86.5519 159° South 426 490 21,100 1,800 Climbing Atlanta Center
Sat 01:19:08 PM 32.6758 -86.5042 161° South 442 509 23,100 1,750 Climbing Atlanta Center
Sat 01:20:08 PM 32.5536 -86.4539 161° South 458 527 24,600 1,350 Climbing Atlanta Center
Sat 01:21:08 PM 32.4294 -86.4086 163° South 458 527 25,800 1,550 Climbing Atlanta Center
Sat 01:22:08 PM 32.2969 -86.3536 161° South 487 560 27,700 2,050 Climbing Atlanta Center
Sat 01:23:08 PM 32.1958 -86.2919 153° Southeast 476 548 29,900 1,841 Climbing Atlanta Center
Sat 01:25:04 PM 32.0117 -86.0753 135° Southeast 463 533 33,100 1,474 Climbing Jacksonville Center
Sat 01:26:03 PM 31.9247 -85.9694 134° Southeast 458 527 34,200 1,039 Climbing Jacksonville Center
Sat 01:28:03 PM 31.7500 -85.7631 135° Southeast 447 514 36,200 933 Climbing Jacksonville Center
Sat 01:29:03 PM 31.6583 -85.6578 136° Southeast 447 514 37,000 397 Climbing Jacksonville Center
Sat 01:30:04 PM 31.5600 -85.5697 143° Southeast 447 514 37,000  Level Jacksonville Center
Sat 01:31:03 PM 31.4575 -85.4767 142° Southeast 457 526 37,000  Level Jacksonville Center
Sat 01:32:03 PM 31.3569 -85.3886 143° Southeast 457 526 37,000  Level Jacksonville Center
Sat 01:33:04 PM 31.2586 -85.2936 140° Southeast 457 526 37,000  Level Jacksonville Center
Sat 01:34:03 PM 31.1600 -85.2061 143° Southeast 457 526 37,000  Level Jacksonville Center
Sat 01:35:03 PM 31.0614 -85.1189 143° Southeast 457 526 37,000  Level Jacksonville Center
Sat 01:36:04 PM 30.9628 -85.0294 142° Southeast 457 526 37,000  Level Jacksonville Center
Sat 01:37:03 PM 30.8619 -84.9400 143° Southeast 457 526 37,000  Level Jacksonville Center
Sat 01:38:03 PM 30.7608 -84.8483 142° Southeast 457 526 37,000  Level Jacksonville Center
Sat 01:39:04 PM 30.6517 -84.7519 143° Southeast 457 526 37,000  Level Jacksonville Center
Sat 01:40:03 PM 30.5486 -84.6631 143° Southeast 457 526 37,000  Level Jacksonville Center
Sat 01:41:03 PM 30.4475 -84.5719 142° Southeast 457 526 37,000  Level Jacksonville Center
Sat 01:42:04 PM 30.3464 -84.4836 143° Southeast 457 526 37,000  Level Jacksonville Center
Sat 01:43:03 PM 30.2450 -84.3953 143° Southeast 457 526 37,000  Level Jacksonville Center
Sat 01:44:03 PM 30.1439 -84.3072 143° Southeast 457 526 37,000  Level Jacksonville Center
Sat 01:45:04 PM 30.0403 -84.2194 144° Southeast 457 526 37,000  Level Jacksonville Center
Sat 01:46:03 PM 29.9514 -84.1417 143° Southeast 457 526 37,000  Level Jacksonville Center
Sat 01:47:03 PM 29.8500 -84.0517 142° Southeast 457 526 37,000  Level Jacksonville Center
Sat 01:48:03 PM 29.7483 -83.9642 143° Southeast 457 526 37,000  Level Jacksonville Center
Sat 01:49:04 PM 29.6322 -83.8628 143° Southeast 457 526 37,000 -800 Level Jacksonville Center
Sat 01:50:03 PM 29.5306 -83.7781 144° Southeast 464 534 35,400 -2,450 Descending Jacksonville Center
Sat 01:51:04 PM 29.4247 -83.6867 143° Southeast 469 540 32,100 -3,074 Descending Jacksonville Center
Sat 01:52:04 PM 29.3208 -83.5953 143° Southeast 469 540 29,200 -2,622 Descending Jacksonville Center
Sat 01:53:03 PM 29.2169 -83.5111 145° Southeast 469 540 26,900 -1,450 Descending Jacksonville Center
Sat 01:54:04 PM 29.1172 -83.4464 150° Southeast 444 511 26,300 -744 Descending Jacksonville Center
Sat 01:55:04 PM 29.0150 -83.3794 150° Southeast 425 489 25,400 -1,513 Descending Jacksonville Center
Sat 01:56:03 PM 28.9067 -83.3125 152° Southeast 425 489 23,300 -2,218 Descending Jacksonville Center
Sat 01:57:03 PM 28.8069 -83.2456 150° Southeast 430 495 21,000 -2,225 Descending Jacksonville Center
Sat 01:58:34 PM 28.6500 -83.1500 152° Southeast 398 458 17,700 -2,152 Descending Tampa TRACON
Sat 01:59:28 PM 28.5667 -83.1000 152° Southeast 383 441 15,800 -2,158 Descending Tampa TRACON
Sat 02:00:28 PM 28.4833 -83.0500 152° Southeast 375 432 13,600 -1,550 Descending Tampa TRACON
Sat 02:01:28 PM 28.4000 -83.0000 152° Southeast 344 396 12,700 -1,300 Descending Tampa TRACON
Sat 02:02:28 PM 28.3167 -82.9500 152° Southeast 321 369 11,000 -1,488 Descending Tampa TRACON
Sat 02:03:29 PM 28.2500 -82.9167 156° South 301 346 9,700 -1,339 Descending Tampa TRACON
Sat 02:04:29 PM 28.2333 -82.8167 101° East 288 331 8,300 -1,500 Descending Tampa TRACON
Sat 02:05:29 PM 28.2167 -82.7333 103° East 285 328 6,700 -1,150 Descending Tampa TRACON
Sat 02:06:29 PM 28.2167 -82.6500 90° East 262 302 6,000 -700 Descending Tampa TRACON
Sat 02:07:29 PM 28.2167 -82.5833 90° East 228 262 5,300 -952 Descending Tampa TRACON
Sat 02:08:35 PM 28.1833 -82.5167 120° Southeast 214 246 4,000 -1,150 Descending Tampa TRACON
Sat 02:09:29 PM 28.1333 -82.5167 180° South 194 223 3,000 -1,105 Descending Tampa TRACON
Sat 02:10:29 PM 28.0833 -82.5333 196° South 177 204 1,900 -950 Descending Tampa TRACON
Sat 02:11:29 PM 28.0333 -82.5333 180° South 165 190 1,100 -750 Descending Tampa TRACON
Sat 02:12:29 PM 28.0000 -82.5333 180° South 136 157 400 -700 Descending Tampa TRACON
Sat 02:14:00 PM 27.9755 -82.5332 161° South  Level Estimated
Sat 02:21:00 PM 27.9755 -82.5332 161° South  Level Estimated
Sat 02:22:00 PM 27.9755 -82.5332 161° South  Level Estimated

Login

Don't have an account? Register now (free) for customized features, flight alerts, and more!